sensor_id;sensor_type;location;lat;lon;timestamp;P1;durP1;ratioP1;P2;durP2;ratioP2
74791;SDS011;63319;46.046;17.802;2023-06-14T00:02:52;5.80;;;1.63;;
74791;SDS011;63319;46.046;17.802;2023-06-14T00:05:58;3.25;;;1.58;;
74791;SDS011;63319;46.046;17.802;2023-06-14T00:09:01;3.80;;;1.42;;
74791;SDS011;63319;46.046;17.802;2023-06-14T00:12:04;3.08;;;1.60;;
74791;SDS011;63319;46.046;17.802;2023-06-14T00:15:11;2.90;;;1.47;;
74791;SDS011;63319;46.046;17.802;2023-06-14T00:18:15;3.10;;;1.60;;
74791;SDS011;63319;46.046;17.802;2023-06-14T00:21:18;3.13;;;1.40;;
74791;SDS011;63319;46.046;17.802;2023-06-14T00:24:21;3.75;;;1.60;;
74791;SDS011;63319;46.046;17.802;2023-06-14T00:27:24;2.55;;;1.30;;
74791;SDS011;63319;46.046;17.802;2023-06-14T00:30:28;4.17;;;1.70;;
74791;SDS011;63319;46.046;17.802;2023-06-14T00:33:33;3.40;;;1.57;;
74791;SDS011;63319;46.046;17.802;2023-06-14T00:36:36;3.40;;;1.60;;
74791;SDS011;63319;46.046;17.802;2023-06-14T00:39:39;3.60;;;1.60;;
74791;SDS011;63319;46.046;17.802;2023-06-14T00:42:42;2.90;;;1.42;;
74791;SDS011;63319;46.046;17.802;2023-06-14T00:45:45;3.40;;;1.57;;
74791;SDS011;63319;46.046;17.802;2023-06-14T00:48:48;2.30;;;1.30;;
74791;SDS011;63319;46.046;17.802;2023-06-14T00:51:51;3.28;;;1.65;;
74791;SDS011;63319;46.046;17.802;2023-06-14T00:54:54;3.60;;;1.58;;
74791;SDS011;63319;46.046;17.802;2023-06-14T00:57:57;3.17;;;1.48;;
74791;SDS011;63319;46.046;17.802;2023-06-14T01:01:00;3.90;;;1.77;;
74791;SDS011;63319;46.046;17.802;2023-06-14T01:04:04;2.87;;;1.50;;
74791;SDS011;63319;46.046;17.802;2023-06-14T01:07:11;2.63;;;1.30;;
74791;SDS011;63319;46.046;17.802;2023-06-14T01:14:03;2.83;;;1.42;;
74791;SDS011;63319;46.046;17.802;2023-06-14T01:17:08;3.37;;;1.50;;
74791;SDS011;63319;46.046;17.802;2023-06-14T01:20:19;3.13;;;1.60;;
74791;SDS011;63319;46.046;17.802;2023-06-14T01:23:24;3.78;;;1.55;;
74791;SDS011;63319;46.046;17.802;2023-06-14T01:26:27;2.58;;;1.50;;
74791;SDS011;63319;46.046;17.802;2023-06-14T01:29:34;4.13;;;1.67;;
74791;SDS011;63319;46.046;17.802;2023-06-14T01:32:38;3.20;;;1.60;;
74791;SDS011;63319;46.046;17.802;2023-06-14T01:35:44;3.97;;;1.70;;
74791;SDS011;63319;46.046;17.802;2023-06-14T01:38:49;2.95;;;1.50;;
74791;SDS011;63319;46.046;17.802;2023-06-14T01:41:54;4.07;;;1.50;;
74791;SDS011;63319;46.046;17.802;2023-06-14T01:44:57;3.88;;;1.40;;
74791;SDS011;63319;46.046;17.802;2023-06-14T01:48:00;2.20;;;1.10;;
74791;SDS011;63319;46.046;17.802;2023-06-14T01:51:09;2.83;;;1.40;;
74791;SDS011;63319;46.046;17.802;2023-06-14T01:54:12;3.03;;;1.33;;
74791;SDS011;63319;46.046;17.802;2023-06-14T01:57:15;3.08;;;1.38;;
74791;SDS011;63319;46.046;17.802;2023-06-14T02:00:24;2.85;;;1.60;;
74791;SDS011;63319;46.046;17.802;2023-06-14T02:03:30;2.67;;;1.40;;
74791;SDS011;63319;46.046;17.802;2023-06-14T02:06:51;3.00;;;1.40;;
74791;SDS011;63319;46.046;17.802;2023-06-14T02:09:53;3.08;;;1.30;;
74791;SDS011;63319;46.046;17.802;2023-06-14T02:12:57;2.92;;;1.50;;
74791;SDS011;63319;46.046;17.802;2023-06-14T02:16:00;3.40;;;1.50;;
74791;SDS011;63319;46.046;17.802;2023-06-14T02:19:04;3.10;;;1.30;;
74791;SDS011;63319;46.046;17.802;2023-06-14T02:22:07;3.13;;;1.60;;
74791;SDS011;63319;46.046;17.802;2023-06-14T02:25:10;4.05;;;1.65;;
74791;SDS011;63319;46.046;17.802;2023-06-14T02:28:15;2.33;;;1.10;;
74791;SDS011;63319;46.046;17.802;2023-06-14T02:31:21;2.85;;;1.40;;
74791;SDS011;63319;46.046;17.802;2023-06-14T02:34:24;4.23;;;1.47;;
74791;SDS011;63319;46.046;17.802;2023-06-14T02:37:27;2.77;;;1.37;;
74791;SDS011;63319;46.046;17.802;2023-06-14T02:40:30;3.08;;;1.33;;
74791;SDS011;63319;46.046;17.802;2023-06-14T02:43:33;3.00;;;1.42;;
74791;SDS011;63319;46.046;17.802;2023-06-14T02:46:35;2.88;;;1.40;;
74791;SDS011;63319;46.046;17.802;2023-06-14T02:49:39;3.20;;;1.47;;
74791;SDS011;63319;46.046;17.802;2023-06-14T02:52:41;2.97;;;1.47;;
74791;SDS011;63319;46.046;17.802;2023-06-14T02:55:47;3.05;;;1.63;;
74791;SDS011;63319;46.046;17.802;2023-06-14T02:58:51;2.63;;;1.30;;
74791;SDS011;63319;46.046;17.802;2023-06-14T03:01:55;2.55;;;1.35;;
74791;SDS011;63319;46.046;17.802;2023-06-14T03:04:58;3.63;;;1.30;;
74791;SDS011;63319;46.046;17.802;2023-06-14T03:08:05;2.77;;;1.40;;
74791;SDS011;63319;46.046;17.802;2023-06-14T03:11:09;2.75;;;1.45;;
74791;SDS011;63319;46.046;17.802;2023-06-14T03:14:12;3.20;;;1.52;;
74791;SDS011;63319;46.046;17.802;2023-06-14T03:17:17;3.35;;;1.52;;
74791;SDS011;63319;46.046;17.802;2023-06-14T03:20:22;2.93;;;1.60;;
74791;SDS011;63319;46.046;17.802;2023-06-14T03:23:28;2.93;;;1.43;;
74791;SDS011;63319;46.046;17.802;2023-06-14T03:26:31;4.70;;;0.98;;
74791;SDS011;63319;46.046;17.802;2023-06-14T03:29:37;3.53;;;1.70;;
74791;SDS011;63319;46.046;17.802;2023-06-14T03:32:40;3.28;;;1.33;;
74791;SDS011;63319;46.046;17.802;2023-06-14T03:35:43;2.50;;;1.40;;
74791;SDS011;63319;46.046;17.802;2023-06-14T03:38:47;3.47;;;1.37;;
74791;SDS011;63319;46.046;17.802;2023-06-14T03:41:51;2.35;;;1.08;;
74791;SDS011;63319;46.046;17.802;2023-06-14T03:44:55;3.20;;;1.50;;
74791;SDS011;63319;46.046;17.802;2023-06-14T03:47:59;3.15;;;1.60;;
74791;SDS011;63319;46.046;17.802;2023-06-14T03:51:04;2.83;;;1.20;;
74791;SDS011;63319;46.046;17.802;2023-06-14T03:54:07;3.03;;;1.67;;
74791;SDS011;63319;46.046;17.802;2023-06-14T03:57:13;2.55;;;1.60;;
74791;SDS011;63319;46.046;17.802;2023-06-14T04:00:18;3.65;;;1.40;;
74791;SDS011;63319;46.046;17.802;2023-06-14T04:03:21;3.85;;;1.48;;
74791;SDS011;63319;46.046;17.802;2023-06-14T04:06:34;2.37;;;1.17;;
74791;SDS011;63319;46.046;17.802;2023-06-14T04:09:39;2.67;;;1.17;;
74791;SDS011;63319;46.046;17.802;2023-06-14T04:12:48;2.80;;;1.42;;
74791;SDS011;63319;46.046;17.802;2023-06-14T04:15:52;3.58;;;1.30;;
74791;SDS011;63319;46.046;17.802;2023-06-14T04:19:01;3.40;;;1.50;;
74791;SDS011;63319;46.046;17.802;2023-06-14T04:22:04;2.40;;;1.23;;
74791;SDS011;63319;46.046;17.802;2023-06-14T04:25:10;2.47;;;1.20;;
74791;SDS011;63319;46.046;17.802;2023-06-14T04:28:16;3.03;;;1.40;;
74791;SDS011;63319;46.046;17.802;2023-06-14T04:31:20;2.85;;;1.50;;
74791;SDS011;63319;46.046;17.802;2023-06-14T04:34:27;3.58;;;1.63;;
74791;SDS011;63319;46.046;17.802;2023-06-14T04:37:32;2.03;;;1.00;;
74791;SDS011;63319;46.046;17.802;2023-06-14T04:40:35;3.03;;;1.40;;
74791;SDS011;63319;46.046;17.802;2023-06-14T04:43:49;3.90;;;1.38;;
74791;SDS011;63319;46.046;17.802;2023-06-14T04:46:52;2.38;;;1.17;;
74791;SDS011;63319;46.046;17.802;2023-06-14T04:49:57;2.63;;;1.10;;
74791;SDS011;63319;46.046;17.802;2023-06-14T04:53:00;2.90;;;1.50;;
74791;SDS011;63319;46.046;17.802;2023-06-14T04:56:03;2.47;;;1.30;;
74791;SDS011;63319;46.046;17.802;2023-06-14T04:59:08;2.95;;;1.25;;
74791;SDS011;63319;46.046;17.802;2023-06-14T05:02:11;3.28;;;1.30;;
74791;SDS011;63319;46.046;17.802;2023-06-14T05:05:14;3.67;;;1.50;;
74791;SDS011;63319;46.046;17.802;2023-06-14T05:08:20;2.97;;;1.50;;
74791;SDS011;63319;46.046;17.802;2023-06-14T05:11:25;2.50;;;1.30;;
74791;SDS011;63319;46.046;17.802;2023-06-14T05:14:29;2.72;;;1.20;;
74791;SDS011;63319;46.046;17.802;2023-06-14T05:17:32;2.35;;;1.15;;
74791;SDS011;63319;46.046;17.802;2023-06-14T05:20:35;2.53;;;1.35;;
74791;SDS011;63319;46.046;17.802;2023-06-14T05:23:39;2.87;;;1.20;;
74791;SDS011;63319;46.046;17.802;2023-06-14T05:26:42;2.70;;;1.50;;
74791;SDS011;63319;46.046;17.802;2023-06-14T05:29:45;3.20;;;1.40;;
74791;SDS011;63319;46.046;17.802;2023-06-14T05:32:48;3.25;;;1.40;;
74791;SDS011;63319;46.046;17.802;2023-06-14T05:35:50;2.67;;;1.27;;
74791;SDS011;63319;46.046;17.802;2023-06-14T05:38:54;2.80;;;1.30;;
74791;SDS011;63319;46.046;17.802;2023-06-14T05:42:00;2.50;;;1.27;;
74791;SDS011;63319;46.046;17.802;2023-06-14T05:45:03;2.58;;;1.10;;
74791;SDS011;63319;46.046;17.802;2023-06-14T05:48:06;2.88;;;1.45;;
74791;SDS011;63319;46.046;17.802;2023-06-14T05:51:09;4.43;;;1.35;;
74791;SDS011;63319;46.046;17.802;2023-06-14T05:54:12;3.07;;;1.30;;
74791;SDS011;63319;46.046;17.802;2023-06-14T05:57:15;2.60;;;1.30;;
74791;SDS011;63319;46.046;17.802;2023-06-14T06:00:18;3.05;;;1.42;;
74791;SDS011;63319;46.046;17.802;2023-06-14T06:03:22;2.58;;;1.20;;
74791;SDS011;63319;46.046;17.802;2023-06-14T06:06:25;3.40;;;1.48;;
74791;SDS011;63319;46.046;17.802;2023-06-14T06:09:28;4.97;;;2.03;;
74791;SDS011;63319;46.046;17.802;2023-06-14T06:12:31;4.67;;;2.30;;
74791;SDS011;63319;46.046;17.802;2023-06-14T06:15:35;6.68;;;2.20;;
74791;SDS011;63319;46.046;17.802;2023-06-14T06:18:38;7.28;;;2.67;;
74791;SDS011;63319;46.046;17.802;2023-06-14T06:21:41;6.00;;;2.75;;
74791;SDS011;63319;46.046;17.802;2023-06-14T06:24:43;5.77;;;2.50;;
74791;SDS011;63319;46.046;17.802;2023-06-14T06:27:47;7.67;;;2.63;;
74791;SDS011;63319;46.046;17.802;2023-06-14T06:30:51;7.63;;;3.08;;
74791;SDS011;63319;46.046;17.802;2023-06-14T06:33:54;8.10;;;2.80;;
74791;SDS011;63319;46.046;17.802;2023-06-14T06:36:57;10.45;;;3.38;;
74791;SDS011;63319;46.046;17.802;2023-06-14T06:40:00;8.07;;;3.33;;
74791;SDS011;63319;46.046;17.802;2023-06-14T06:43:03;6.87;;;2.77;;
74791;SDS011;63319;46.046;17.802;2023-06-14T06:46:17;8.27;;;3.28;;
74791;SDS011;63319;46.046;17.802;2023-06-14T06:49:28;7.55;;;3.20;;
74791;SDS011;63319;46.046;17.802;2023-06-14T06:52:31;7.90;;;2.80;;
74791;SDS011;63319;46.046;17.802;2023-06-14T06:55:48;8.30;;;3.20;;
74791;SDS011;63319;46.046;17.802;2023-06-14T06:58:55;7.83;;;3.37;;
74791;SDS011;63319;46.046;17.802;2023-06-14T07:01:58;6.47;;;2.83;;
74791;SDS011;63319;46.046;17.802;2023-06-14T07:05:01;6.45;;;2.92;;
74791;SDS011;63319;46.046;17.802;2023-06-14T07:08:05;4.80;;;2.50;;
74791;SDS011;63319;46.046;17.802;2023-06-14T07:11:07;7.07;;;2.87;;
74791;SDS011;63319;46.046;17.802;2023-06-14T07:14:10;12.43;;;3.13;;
74791;SDS011;63319;46.046;17.802;2023-06-14T07:17:13;9.60;;;2.70;;
74791;SDS011;63319;46.046;17.802;2023-06-14T07:20:16;6.18;;;2.78;;
74791;SDS011;63319;46.046;17.802;2023-06-14T07:23:19;6.57;;;2.17;;
74791;SDS011;63319;46.046;17.802;2023-06-14T07:26:23;7.00;;;3.00;;
74791;SDS011;63319;46.046;17.802;2023-06-14T07:29:26;7.07;;;2.77;;
74791;SDS011;63319;46.046;17.802;2023-06-14T07:32:29;9.25;;;2.63;;
74791;SDS011;63319;46.046;17.802;2023-06-14T07:35:32;6.07;;;2.50;;
74791;SDS011;63319;46.046;17.802;2023-06-14T07:38:35;6.30;;;2.30;;
74791;SDS011;63319;46.046;17.802;2023-06-14T07:41:45;7.10;;;2.70;;
74791;SDS011;63319;46.046;17.802;2023-06-14T07:44:48;5.43;;;2.40;;
74791;SDS011;63319;46.046;17.802;2023-06-14T07:47:53;6.82;;;2.85;;
74791;SDS011;63319;46.046;17.802;2023-06-14T07:50:55;5.93;;;3.10;;
74791;SDS011;63319;46.046;17.802;2023-06-14T07:54:01;6.68;;;2.83;;
74791;SDS011;63319;46.046;17.802;2023-06-14T07:57:06;7.23;;;2.47;;
74791;SDS011;63319;46.046;17.802;2023-06-14T08:00:09;5.77;;;2.40;;
74791;SDS011;63319;46.046;17.802;2023-06-14T08:03:17;7.47;;;2.55;;
74791;SDS011;63319;46.046;17.802;2023-06-14T08:06:20;6.82;;;2.75;;
74791;SDS011;63319;46.046;17.802;2023-06-14T08:09:24;4.70;;;2.55;;
74791;SDS011;63319;46.046;17.802;2023-06-14T08:12:27;6.90;;;2.57;;
74791;SDS011;63319;46.046;17.802;2023-06-14T08:15:32;6.30;;;2.40;;
74791;SDS011;63319;46.046;17.802;2023-06-14T08:18:50;5.00;;;2.35;;
74791;SDS011;63319;46.046;17.802;2023-06-14T08:21:53;7.95;;;2.63;;
74791;SDS011;63319;46.046;17.802;2023-06-14T08:24:57;7.68;;;2.85;;
74791;SDS011;63319;46.046;17.802;2023-06-14T08:28:00;6.13;;;2.50;;
74791;SDS011;63319;46.046;17.802;2023-06-14T08:31:03;8.83;;;2.53;;
74791;SDS011;63319;46.046;17.802;2023-06-14T08:34:09;5.95;;;2.35;;
74791;SDS011;63319;46.046;17.802;2023-06-14T08:37:19;5.13;;;2.67;;
74791;SDS011;63319;46.046;17.802;2023-06-14T08:40:23;7.50;;;2.53;;
74791;SDS011;63319;46.046;17.802;2023-06-14T08:43:26;5.37;;;2.30;;
74791;SDS011;63319;46.046;17.802;2023-06-14T08:46:29;3.70;;;1.80;;
74791;SDS011;63319;46.046;17.802;2023-06-14T08:49:36;7.28;;;2.53;;
74791;SDS011;63319;46.046;17.802;2023-06-14T08:52:41;5.60;;;2.25;;
74791;SDS011;63319;46.046;17.802;2023-06-14T08:55:51;9.35;;;2.53;;
74791;SDS011;63319;46.046;17.802;2023-06-14T08:58:56;5.63;;;2.67;;
74791;SDS011;63319;46.046;17.802;2023-06-14T09:02:06;8.57;;;2.23;;
74791;SDS011;63319;46.046;17.802;2023-06-14T09:05:14;6.72;;;2.80;;
74791;SDS011;63319;46.046;17.802;2023-06-14T09:08:20;6.47;;;2.20;;
74791;SDS011;63319;46.046;17.802;2023-06-14T09:11:24;9.18;;;2.22;;
74791;SDS011;63319;46.046;17.802;2023-06-14T09:14:29;7.63;;;2.40;;
74791;SDS011;63319;46.046;17.802;2023-06-14T09:17:32;7.10;;;2.60;;
74791;SDS011;63319;46.046;17.802;2023-06-14T09:20:37;4.85;;;2.55;;
74791;SDS011;63319;46.046;17.802;2023-06-14T09:23:40;6.63;;;2.92;;
74791;SDS011;63319;46.046;17.802;2023-06-14T09:26:46;5.78;;;2.13;;
74791;SDS011;63319;46.046;17.802;2023-06-14T09:29:50;5.10;;;2.40;;
74791;SDS011;63319;46.046;17.802;2023-06-14T09:32:52;5.60;;;2.30;;
74791;SDS011;63319;46.046;17.802;2023-06-14T09:35:55;6.35;;;2.30;;
74791;SDS011;63319;46.046;17.802;2023-06-14T09:38:59;5.63;;;2.70;;
74791;SDS011;63319;46.046;17.802;2023-06-14T09:42:04;7.32;;;2.60;;
74791;SDS011;63319;46.046;17.802;2023-06-14T09:45:20;4.40;;;2.27;;
74791;SDS011;63319;46.046;17.802;2023-06-14T09:48:24;6.97;;;2.40;;
74791;SDS011;63319;46.046;17.802;2023-06-14T09:51:28;4.93;;;2.30;;
74791;SDS011;63319;46.046;17.802;2023-06-14T09:54:34;4.78;;;2.40;;
74791;SDS011;63319;46.046;17.802;2023-06-14T09:57:45;6.93;;;2.28;;
74791;SDS011;63319;46.046;17.802;2023-06-14T10:00:51;8.60;;;2.53;;
74791;SDS011;63319;46.046;17.802;2023-06-14T10:04:03;5.00;;;2.13;;
74791;SDS011;63319;46.046;17.802;2023-06-14T10:07:19;4.55;;;2.13;;
74791;SDS011;63319;46.046;17.802;2023-06-14T10:10:23;5.65;;;2.47;;
74791;SDS011;63319;46.046;17.802;2023-06-14T10:13:26;5.05;;;2.45;;
74791;SDS011;63319;46.046;17.802;2023-06-14T10:19:56;5.93;;;2.60;;
74791;SDS011;63319;46.046;17.802;2023-06-14T10:23:10;6.20;;;2.30;;
74791;SDS011;63319;46.046;17.802;2023-06-14T10:26:19;6.57;;;2.20;;
74791;SDS011;63319;46.046;17.802;2023-06-14T10:29:26;6.63;;;2.60;;
74791;SDS011;63319;46.046;17.802;2023-06-14T10:32:35;4.70;;;2.10;;
74791;SDS011;63319;46.046;17.802;2023-06-14T10:39:25;5.03;;;2.30;;
74791;SDS011;63319;46.046;17.802;2023-06-14T10:42:31;5.47;;;2.30;;
74791;SDS011;63319;46.046;17.802;2023-06-14T10:45:34;3.97;;;1.90;;
74791;SDS011;63319;46.046;17.802;2023-06-14T10:48:40;4.80;;;2.30;;
74791;SDS011;63319;46.046;17.802;2023-06-14T10:51:45;5.53;;;2.50;;
74791;SDS011;63319;46.046;17.802;2023-06-14T10:58:08;4.00;;;1.80;;
74791;SDS011;63319;46.046;17.802;2023-06-14T11:01:11;4.90;;;2.25;;
74791;SDS011;63319;46.046;17.802;2023-06-14T11:04:16;4.43;;;2.00;;
74791;SDS011;63319;46.046;17.802;2023-06-14T11:10:41;5.03;;;2.25;;
74791;SDS011;63319;46.046;17.802;2023-06-14T11:13:45;4.25;;;2.00;;
74791;SDS011;63319;46.046;17.802;2023-06-14T11:16:49;8.55;;;2.33;;
74791;SDS011;63319;46.046;17.802;2023-06-14T11:20:07;5.10;;;2.27;;
74791;SDS011;63319;46.046;17.802;2023-06-14T11:23:10;3.93;;;1.80;;
74791;SDS011;63319;46.046;17.802;2023-06-14T11:26:13;6.70;;;2.33;;
74791;SDS011;63319;46.046;17.802;2023-06-14T11:29:16;5.68;;;2.25;;
74791;SDS011;63319;46.046;17.802;2023-06-14T11:32:22;4.45;;;2.22;;
74791;SDS011;63319;46.046;17.802;2023-06-14T11:35:28;5.87;;;1.97;;
74791;SDS011;63319;46.046;17.802;2023-06-14T11:38:34;6.80;;;2.33;;
74791;SDS011;63319;46.046;17.802;2023-06-14T11:41:44;5.65;;;2.20;;
74791;SDS011;63319;46.046;17.802;2023-06-14T11:44:47;6.13;;;2.10;;
74791;SDS011;63319;46.046;17.802;2023-06-14T11:47:50;4.65;;;2.20;;
74791;SDS011;63319;46.046;17.802;2023-06-14T11:50:53;4.47;;;2.00;;
74791;SDS011;63319;46.046;17.802;2023-06-14T11:53:56;5.43;;;2.33;;
74791;SDS011;63319;46.046;17.802;2023-06-14T11:57:09;4.07;;;2.28;;
74791;SDS011;63319;46.046;17.802;2023-06-14T12:00:13;8.70;;;2.30;;
74791;SDS011;63319;46.046;17.802;2023-06-14T12:03:18;5.97;;;2.40;;
74791;SDS011;63319;46.046;17.802;2023-06-14T12:06:26;5.40;;;2.30;;
74791;SDS011;63319;46.046;17.802;2023-06-14T12:09:36;7.93;;;2.73;;
74791;SDS011;63319;46.046;17.802;2023-06-14T12:12:39;4.47;;;2.28;;
74791;SDS011;63319;46.046;17.802;2023-06-14T12:15:42;6.97;;;2.40;;
74791;SDS011;63319;46.046;17.802;2023-06-14T12:18:45;6.75;;;2.45;;
74791;SDS011;63319;46.046;17.802;2023-06-14T12:21:48;6.47;;;2.13;;
74791;SDS011;63319;46.046;17.802;2023-06-14T12:24:51;6.40;;;2.63;;
74791;SDS011;63319;46.046;17.802;2023-06-14T12:27:55;7.93;;;2.40;;
74791;SDS011;63319;46.046;17.802;2023-06-14T12:30:58;10.50;;;3.03;;
74791;SDS011;63319;46.046;17.802;2023-06-14T12:34:01;6.38;;;2.13;;
74791;SDS011;63319;46.046;17.802;2023-06-14T12:37:09;4.87;;;2.33;;
74791;SDS011;63319;46.046;17.802;2023-06-14T12:40:13;6.07;;;2.23;;
74791;SDS011;63319;46.046;17.802;2023-06-14T12:43:16;6.57;;;2.50;;
74791;SDS011;63319;46.046;17.802;2023-06-14T12:46:21;6.32;;;2.67;;
74791;SDS011;63319;46.046;17.802;2023-06-14T12:49:24;6.68;;;2.38;;
74791;SDS011;63319;46.046;17.802;2023-06-14T12:52:28;4.10;;;2.10;;
74791;SDS011;63319;46.046;17.802;2023-06-14T12:55:31;7.10;;;3.00;;
74791;SDS011;63319;46.046;17.802;2023-06-14T12:58:37;5.80;;;2.20;;
74791;SDS011;63319;46.046;17.802;2023-06-14T13:01:40;6.30;;;2.85;;
74791;SDS011;63319;46.046;17.802;2023-06-14T13:04:43;5.90;;;2.15;;
74791;SDS011;63319;46.046;17.802;2023-06-14T13:07:49;5.40;;;2.20;;
74791;SDS011;63319;46.046;17.802;2023-06-14T13:10:52;4.87;;;2.53;;
74791;SDS011;63319;46.046;17.802;2023-06-14T13:13:56;5.30;;;2.00;;
74791;SDS011;63319;46.046;17.802;2023-06-14T13:16:59;5.55;;;2.20;;
74791;SDS011;63319;46.046;17.802;2023-06-14T13:20:02;5.55;;;2.30;;
74791;SDS011;63319;46.046;17.802;2023-06-14T13:23:05;6.10;;;2.30;;
74791;SDS011;63319;46.046;17.802;2023-06-14T13:26:09;4.73;;;1.90;;
74791;SDS011;63319;46.046;17.802;2023-06-14T13:29:12;6.55;;;2.42;;
74791;SDS011;63319;46.046;17.802;2023-06-14T13:32:15;6.05;;;3.22;;
74791;SDS011;63319;46.046;17.802;2023-06-14T13:35:18;6.00;;;2.60;;
74791;SDS011;63319;46.046;17.802;2023-06-14T13:38:21;4.30;;;2.17;;
74791;SDS011;63319;46.046;17.802;2023-06-14T13:41:25;6.17;;;2.40;;
74791;SDS011;63319;46.046;17.802;2023-06-14T13:44:33;5.20;;;2.30;;
74791;SDS011;63319;46.046;17.802;2023-06-14T13:47:37;4.85;;;2.40;;
74791;SDS011;63319;46.046;17.802;2023-06-14T13:50:40;6.72;;;2.40;;
74791;SDS011;63319;46.046;17.802;2023-06-14T13:53:45;4.50;;;2.07;;
74791;SDS011;63319;46.046;17.802;2023-06-14T13:56:48;4.57;;;1.97;;
74791;SDS011;63319;46.046;17.802;2023-06-14T13:59:52;4.57;;;2.35;;
74791;SDS011;63319;46.046;17.802;2023-06-14T14:02:58;5.65;;;2.30;;
74791;SDS011;63319;46.046;17.802;2023-06-14T14:06:02;5.35;;;2.33;;
74791;SDS011;63319;46.046;17.802;2023-06-14T14:09:07;5.97;;;2.47;;
74791;SDS011;63319;46.046;17.802;2023-06-14T14:12:10;4.47;;;2.37;;
74791;SDS011;63319;46.046;17.802;2023-06-14T14:15:13;4.10;;;2.10;;
74791;SDS011;63319;46.046;17.802;2023-06-14T14:18:17;5.03;;;2.22;;
74791;SDS011;63319;46.046;17.802;2023-06-14T14:21:20;5.45;;;2.08;;
74791;SDS011;63319;46.046;17.802;2023-06-14T14:24:23;5.30;;;2.07;;
74791;SDS011;63319;46.046;17.802;2023-06-14T14:27:26;7.97;;;2.73;;
74791;SDS011;63319;46.046;17.802;2023-06-14T14:30:28;5.68;;;2.28;;
74791;SDS011;63319;46.046;17.802;2023-06-14T14:33:32;4.50;;;2.10;;
74791;SDS011;63319;46.046;17.802;2023-06-14T14:36:38;5.88;;;2.45;;
74791;SDS011;63319;46.046;17.802;2023-06-14T14:39:45;4.37;;;2.03;;
74791;SDS011;63319;46.046;17.802;2023-06-14T14:42:48;5.27;;;2.10;;
74791;SDS011;63319;46.046;17.802;2023-06-14T14:45:51;5.07;;;2.20;;
74791;SDS011;63319;46.046;17.802;2023-06-14T14:48:53;7.13;;;2.13;;
74791;SDS011;63319;46.046;17.802;2023-06-14T14:51:56;5.65;;;2.17;;
74791;SDS011;63319;46.046;17.802;2023-06-14T14:55:16;4.17;;;1.93;;
74791;SDS011;63319;46.046;17.802;2023-06-14T14:58:18;4.17;;;1.80;;
74791;SDS011;63319;46.046;17.802;2023-06-14T15:01:22;7.03;;;2.33;;
74791;SDS011;63319;46.046;17.802;2023-06-14T15:04:25;6.60;;;2.42;;
74791;SDS011;63319;46.046;17.802;2023-06-14T15:07:28;6.20;;;2.15;;
74791;SDS011;63319;46.046;17.802;2023-06-14T15:10:31;4.70;;;2.17;;
74791;SDS011;63319;46.046;17.802;2023-06-14T15:13:33;5.50;;;2.30;;
74791;SDS011;63319;46.046;17.802;2023-06-14T15:16:37;3.95;;;1.80;;
74791;SDS011;63319;46.046;17.802;2023-06-14T15:19:40;5.95;;;2.03;;
74791;SDS011;63319;46.046;17.802;2023-06-14T15:22:42;5.18;;;2.35;;
74791;SDS011;63319;46.046;17.802;2023-06-14T15:25:51;5.70;;;2.00;;
74791;SDS011;63319;46.046;17.802;2023-06-14T15:28:55;4.50;;;2.30;;
74791;SDS011;63319;46.046;17.802;2023-06-14T15:32:07;4.75;;;2.15;;
74791;SDS011;63319;46.046;17.802;2023-06-14T15:35:10;4.93;;;1.92;;
74791;SDS011;63319;46.046;17.802;2023-06-14T15:38:14;3.97;;;2.03;;
74791;SDS011;63319;46.046;17.802;2023-06-14T15:41:17;5.43;;;2.60;;
74791;SDS011;63319;46.046;17.802;2023-06-14T15:44:20;4.53;;;2.30;;
74791;SDS011;63319;46.046;17.802;2023-06-14T15:47:23;4.53;;;2.33;;
74791;SDS011;63319;46.046;17.802;2023-06-14T15:50:26;5.70;;;2.30;;
74791;SDS011;63319;46.046;17.802;2023-06-14T15:53:29;3.67;;;1.65;;
74791;SDS011;63319;46.046;17.802;2023-06-14T15:56:32;5.23;;;1.90;;
74791;SDS011;63319;46.046;17.802;2023-06-14T15:59:35;4.60;;;2.00;;
74791;SDS011;63319;46.046;17.802;2023-06-14T16:02:38;4.57;;;1.98;;
74791;SDS011;63319;46.046;17.802;2023-06-14T16:05:40;4.53;;;2.22;;
74791;SDS011;63319;46.046;17.802;2023-06-14T16:08:44;5.28;;;2.15;;
74791;SDS011;63319;46.046;17.802;2023-06-14T16:11:48;4.67;;;2.33;;
74791;SDS011;63319;46.046;17.802;2023-06-14T16:14:51;4.53;;;2.43;;
74791;SDS011;63319;46.046;17.802;2023-06-14T16:17:54;4.63;;;2.00;;
74791;SDS011;63319;46.046;17.802;2023-06-14T16:20:57;5.43;;;2.30;;
74791;SDS011;63319;46.046;17.802;2023-06-14T16:24:00;5.03;;;2.63;;
74791;SDS011;63319;46.046;17.802;2023-06-14T16:27:03;5.13;;;2.47;;
74791;SDS011;63319;46.046;17.802;2023-06-14T16:30:08;4.63;;;2.20;;
74791;SDS011;63319;46.046;17.802;2023-06-14T16:33:11;5.07;;;2.00;;
74791;SDS011;63319;46.046;17.802;2023-06-14T16:36:14;5.60;;;1.98;;
74791;SDS011;63319;46.046;17.802;2023-06-14T16:39:17;5.05;;;1.95;;
74791;SDS011;63319;46.046;17.802;2023-06-14T16:42:20;4.83;;;1.90;;
74791;SDS011;63319;46.046;17.802;2023-06-14T16:45:22;4.17;;;1.77;;
74791;SDS011;63319;46.046;17.802;2023-06-14T16:48:26;5.55;;;2.30;;
74791;SDS011;63319;46.046;17.802;2023-06-14T16:51:28;4.47;;;2.10;;
74791;SDS011;63319;46.046;17.802;2023-06-14T16:54:31;4.05;;;1.90;;
74791;SDS011;63319;46.046;17.802;2023-06-14T16:57:34;6.90;;;2.53;;
74791;SDS011;63319;46.046;17.802;2023-06-14T17:00:37;5.37;;;2.03;;
74791;SDS011;63319;46.046;17.802;2023-06-14T17:03:40;5.07;;;2.38;;
74791;SDS011;63319;46.046;17.802;2023-06-14T17:06:43;4.28;;;2.13;;
74791;SDS011;63319;46.046;17.802;2023-06-14T17:09:46;4.78;;;2.22;;
74791;SDS011;63319;46.046;17.802;2023-06-14T17:12:49;3.97;;;1.87;;
74791;SDS011;63319;46.046;17.802;2023-06-14T17:15:51;5.10;;;1.80;;
74791;SDS011;63319;46.046;17.802;2023-06-14T17:18:54;3.88;;;1.77;;
74791;SDS011;63319;46.046;17.802;2023-06-14T17:21:57;4.70;;;2.13;;
74791;SDS011;63319;46.046;17.802;2023-06-14T17:25:00;4.60;;;2.20;;
74791;SDS011;63319;46.046;17.802;2023-06-14T17:28:03;3.80;;;2.00;;
74791;SDS011;63319;46.046;17.802;2023-06-14T17:31:06;6.03;;;2.00;;
74791;SDS011;63319;46.046;17.802;2023-06-14T17:34:10;4.50;;;1.80;;
74791;SDS011;63319;46.046;17.802;2023-06-14T17:37:13;4.00;;;1.90;;
74791;SDS011;63319;46.046;17.802;2023-06-14T17:40:15;4.85;;;2.13;;
74791;SDS011;63319;46.046;17.802;2023-06-14T17:43:19;4.00;;;1.90;;
74791;SDS011;63319;46.046;17.802;2023-06-14T17:46:24;4.80;;;2.30;;
74791;SDS011;63319;46.046;17.802;2023-06-14T17:49:27;3.45;;;1.73;;
74791;SDS011;63319;46.046;17.802;2023-06-14T17:52:30;4.32;;;1.80;;
74791;SDS011;63319;46.046;17.802;2023-06-14T17:55:33;3.45;;;1.52;;
74791;SDS011;63319;46.046;17.802;2023-06-14T17:58:36;4.43;;;2.10;;
74791;SDS011;63319;46.046;17.802;2023-06-14T18:01:39;4.60;;;2.20;;
74791;SDS011;63319;46.046;17.802;2023-06-14T18:04:43;4.45;;;2.00;;
74791;SDS011;63319;46.046;17.802;2023-06-14T18:07:46;5.20;;;1.90;;
74791;SDS011;63319;46.046;17.802;2023-06-14T18:10:50;4.63;;;1.90;;
74791;SDS011;63319;46.046;17.802;2023-06-14T18:13:53;5.50;;;2.10;;
74791;SDS011;63319;46.046;17.802;2023-06-14T18:16:57;5.53;;;1.83;;
74791;SDS011;63319;46.046;17.802;2023-06-14T18:20:01;5.07;;;1.88;;
74791;SDS011;63319;46.046;17.802;2023-06-14T18:23:06;5.88;;;1.90;;
74791;SDS011;63319;46.046;17.802;2023-06-14T18:26:13;4.65;;;2.10;;
74791;SDS011;63319;46.046;17.802;2023-06-14T18:29:17;4.13;;;1.80;;
74791;SDS011;63319;46.046;17.802;2023-06-14T18:32:23;4.90;;;2.20;;